createdAt,value
2018-07-16T00:01:07.923Z,3.90
2018-07-16T00:04:10.029Z,4.60
2018-07-16T00:07:12.362Z,4.17
2018-07-16T00:10:14.349Z,4.37
2018-07-16T00:13:17.192Z,4.67
2018-07-16T00:16:19.341Z,4.40
2018-07-16T00:19:21.535Z,4.33
2018-07-16T00:22:23.615Z,4.30
2018-07-16T00:25:31.670Z,4.03
2018-07-16T00:28:33.842Z,4.03
2018-07-16T00:31:35.888Z,3.90
2018-07-16T00:34:37.892Z,4.10
2018-07-16T00:37:40.064Z,3.80
2018-07-16T00:40:42.236Z,4.53
2018-07-16T00:43:44.309Z,3.90
2018-07-16T00:46:47.612Z,4.30
2018-07-16T00:49:49.764Z,4.57
2018-07-16T00:52:51.732Z,4.80
2018-07-16T00:55:53.792Z,4.47
2018-07-16T00:58:55.900Z,5.03
2018-07-16T01:01:57.867Z,5.27
2018-07-16T01:04:59.945Z,4.90
2018-07-16T01:08:02.089Z,4.77
2018-07-16T01:11:04.179Z,4.60
2018-07-16T01:14:06.268Z,5.17
2018-07-16T01:17:08.444Z,5.27
2018-07-16T01:20:10.691Z,5.23
2018-07-16T01:23:12.912Z,4.67
2018-07-16T01:26:17.088Z,5.43
2018-07-16T01:29:19.262Z,4.87
2018-07-16T01:32:21.439Z,5.30
2018-07-16T01:35:23.520Z,5.20
2018-07-16T01:38:25.581Z,6.13
2018-07-16T01:41:27.612Z,4.90
2018-07-16T01:44:29.687Z,5.97
2018-07-16T01:47:31.815Z,5.37
2018-07-16T01:50:33.832Z,5.40
2018-07-16T01:53:35.956Z,5.60
2018-07-16T01:56:38.090Z,5.53
2018-07-16T01:59:40.148Z,5.40
2018-07-16T02:02:42.126Z,5.50
2018-07-16T02:05:44.175Z,5.53
2018-07-16T02:08:47.529Z,5.57
2018-07-16T02:11:49.696Z,5.77
2018-07-16T02:14:51.829Z,5.40
2018-07-16T02:17:53.892Z,6.07
2018-07-16T02:20:56.993Z,5.83
2018-07-16T02:23:59.092Z,5.67
2018-07-16T02:27:01.192Z,5.70
2018-07-16T02:30:03.760Z,5.33
2018-07-16T02:33:05.940Z,5.23
2018-07-16T02:36:08.000Z,5.97
2018-07-16T02:39:10.064Z,5.90
2018-07-16T02:42:12.216Z,6.13
2018-07-16T02:45:14.276Z,6.43
2018-07-16T02:48:17.127Z,6.03
2018-07-16T02:51:19.281Z,6.30
2018-07-16T02:54:21.412Z,6.23
2018-07-16T02:57:23.484Z,6.90
2018-07-16T03:00:25.655Z,7.23
2018-07-16T03:03:27.620Z,7.77
2018-07-16T03:06:29.685Z,7.40
2018-07-16T03:09:31.871Z,7.40
2018-07-16T03:12:33.928Z,6.70
2018-07-16T03:15:36.024Z,7.43
2018-07-16T03:18:38.185Z,6.90
2018-07-16T03:21:40.399Z,6.33
2018-07-16T03:24:42.744Z,7.50
2018-07-16T03:27:44.877Z,7.00
2018-07-16T03:30:48.102Z,7.60
2018-07-16T03:33:50.307Z,8.20
2018-07-16T03:36:52.421Z,8.80
2018-07-16T03:39:54.499Z,8.07
2018-07-16T03:42:56.517Z,8.60
2018-07-16T03:45:58.683Z,8.27
2018-07-16T03:49:00.855Z,8.37
2018-07-16T03:52:02.921Z,7.30
2018-07-16T03:55:05.057Z,8.97
2018-07-16T03:58:07.156Z,8.77
2018-07-16T04:01:09.096Z,8.90
2018-07-16T04:04:11.291Z,8.17
2018-07-16T04:07:14.392Z,8.23
2018-07-16T04:10:17.444Z,9.13
2018-07-16T04:13:19.532Z,9.10
2018-07-16T04:16:21.576Z,10.63
2018-07-16T04:19:23.756Z,10.40
2018-07-16T04:22:25.827Z,9.60
2018-07-16T04:25:27.917Z,10.10
2018-07-16T04:28:30.060Z,9.80
2018-07-16T04:31:32.211Z,8.20
2018-07-16T04:34:34.293Z,9.03
2018-07-16T04:37:36.604Z,8.53
2018-07-16T04:40:38.744Z,9.27
2018-07-16T04:43:40.706Z,7.77
2018-07-16T04:46:42.787Z,8.90
2018-07-16T04:49:45.052Z,9.23
2018-07-16T04:52:48.299Z,9.17
2018-07-16T04:55:50.410Z,9.07
2018-07-16T04:58:52.548Z,9.60
2018-07-16T05:01:54.671Z,9.77
2018-07-16T05:04:56.730Z,8.63
2018-07-16T05:07:58.881Z,9.27
2018-07-16T05:11:01.052Z,10.27
2018-07-16T05:14:03.213Z,10.90
2018-07-16T05:17:13.166Z,10.57
2018-07-16T05:20:15.244Z,11.27
2018-07-16T05:23:18.343Z,11.93
2018-07-16T05:26:21.473Z,10.57
2018-07-16T05:29:23.547Z,9.90
2018-07-16T05:32:25.899Z,9.90
2018-07-16T05:35:28.840Z,9.57
2018-07-16T05:38:32.013Z,8.70
2018-07-16T05:41:34.415Z,9.23
2018-07-16T05:44:36.440Z,8.30
2018-07-16T05:47:38.616Z,8.90
2018-07-16T05:50:40.729Z,7.87
2018-07-16T05:53:42.760Z,7.27
2018-07-16T05:56:44.745Z,6.93
2018-07-16T05:59:47.604Z,7.10
2018-07-16T06:02:49.762Z,7.63
2018-07-16T06:05:51.844Z,7.60
2018-07-16T06:08:54.101Z,8.00
2018-07-16T06:11:56.183Z,7.57
2018-07-16T06:14:58.528Z,8.20
2018-07-16T06:18:00.579Z,8.30
2018-07-16T06:21:02.524Z,8.13
2018-07-16T06:24:04.977Z,8.30
2018-07-16T06:27:07.055Z,8.30
2018-07-16T06:30:09.172Z,8.37
2018-07-16T06:33:11.337Z,8.67
2018-07-16T06:36:13.336Z,8.50
2018-07-16T06:39:15.311Z,8.33
2018-07-16T06:42:18.512Z,8.07
2018-07-16T06:45:20.634Z,8.37
2018-07-16T06:48:22.713Z,7.97
2018-07-16T06:51:24.813Z,7.97
2018-07-16T06:54:26.952Z,8.80
2018-07-16T06:57:28.995Z,8.57
2018-07-16T07:00:30.987Z,6.70
2018-07-16T07:03:33.097Z,6.83
2018-07-16T07:06:35.125Z,7.03
2018-07-16T07:09:37.111Z,7.30
2018-07-16T07:12:39.225Z,7.07
2018-07-16T07:15:41.323Z,6.80
2018-07-16T07:18:43.452Z,6.97
2018-07-16T07:21:45.502Z,6.10
2018-07-16T07:24:48.511Z,7.07
2018-07-16T07:27:50.473Z,6.17
2018-07-16T07:30:52.499Z,5.93
2018-07-16T07:33:54.589Z,5.70
2018-07-16T07:36:56.724Z,5.93
2018-07-16T07:39:58.845Z,6.27
2018-07-16T07:43:00.968Z,5.77
2018-07-16T07:46:03.165Z,5.13
2018-07-16T07:49:05.343Z,4.97
2018-07-16T07:52:07.421Z,5.40
2018-07-16T07:55:09.898Z,5.10
2018-07-16T07:58:11.728Z,5.60
2018-07-16T08:01:13.742Z,5.67
2018-07-16T08:04:15.915Z,5.07
2018-07-16T08:07:19.112Z,4.60
2018-07-16T08:10:21.110Z,5.37
2018-07-16T08:13:23.242Z,5.60
2018-07-16T08:16:25.270Z,5.67
2018-07-16T08:19:27.345Z,6.40
2018-07-16T08:22:29.544Z,6.50
2018-07-16T08:25:31.626Z,6.20
2018-07-16T08:28:33.712Z,7.27
2018-07-16T08:31:35.867Z,6.53
2018-07-16T08:34:37.941Z,6.70
2018-07-16T08:37:39.944Z,6.50
2018-07-16T08:40:42.039Z,5.93
2018-07-16T08:43:44.042Z,6.70
2018-07-16T08:46:47.161Z,6.27
2018-07-16T08:49:50.241Z,6.50
2018-07-16T08:52:52.446Z,7.10
2018-07-16T08:55:54.460Z,6.90
2018-07-16T08:58:56.508Z,6.57
2018-07-16T09:01:58.701Z,6.00
2018-07-16T09:05:00.985Z,5.90
2018-07-16T09:08:03.063Z,7.43
2018-07-16T09:11:05.401Z,5.67
2018-07-16T09:14:07.455Z,5.40
2018-07-16T09:17:09.921Z,5.50
2018-07-16T09:20:11.919Z,5.03
2018-07-16T09:23:14.019Z,4.17
2018-07-16T09:26:16.112Z,4.40
2018-07-16T09:29:20.093Z,3.97
2018-07-16T09:32:22.184Z,4.07
2018-07-16T09:35:24.346Z,4.30
2018-07-16T09:38:26.432Z,3.90
2018-07-16T09:41:28.585Z,3.87
2018-07-16T09:44:30.645Z,3.67
2018-07-16T09:47:32.798Z,3.50
2018-07-16T09:50:34.938Z,3.90
2018-07-16T09:53:37.080Z,3.63
2018-07-16T09:56:39.254Z,3.20
2018-07-16T09:59:41.538Z,3.23
2018-07-16T10:02:43.710Z,3.40
2018-07-16T10:05:45.753Z,3.80
2018-07-16T10:08:47.866Z,3.23
2018-07-16T10:11:50.651Z,3.67
2018-07-16T10:14:52.805Z,3.00
2018-07-16T10:17:55.046Z,3.10
2018-07-16T10:20:57.044Z,2.53
2018-07-16T10:23:59.074Z,2.50
2018-07-16T10:27:01.085Z,2.27
2018-07-16T10:30:03.276Z,2.80
2018-07-16T10:33:05.394Z,2.90
2018-07-16T10:36:07.511Z,2.77
2018-07-16T10:39:09.529Z,2.50
2018-07-16T10:42:11.820Z,2.97
2018-07-16T10:45:13.898Z,2.60
2018-07-16T10:48:16.105Z,2.90
2018-07-16T10:51:18.157Z,3.50
2018-07-16T10:54:21.234Z,3.43
2018-07-16T10:57:23.441Z,3.20
2018-07-16T11:00:26.040Z,2.97
2018-07-16T11:03:28.165Z,3.03
2018-07-16T11:06:30.348Z,3.10
2018-07-16T11:09:32.296Z,3.20
2018-07-16T11:12:34.438Z,3.00
2018-07-16T11:15:36.516Z,3.00
2018-07-16T11:18:38.593Z,3.00
2018-07-16T11:21:40.696Z,3.07
2018-07-16T11:24:42.746Z,3.00
2018-07-16T11:27:44.695Z,2.83
2018-07-16T11:30:46.760Z,2.70
2018-07-16T11:33:50.140Z,3.27
2018-07-16T11:36:52.436Z,3.10
2018-07-16T11:39:54.408Z,3.27
2018-07-16T11:42:56.461Z,3.23
2018-07-16T11:45:58.552Z,2.90
2018-07-16T11:49:00.512Z,2.73
2018-07-16T11:52:02.536Z,2.97
2018-07-16T11:55:05.667Z,2.80
2018-07-16T11:58:07.855Z,2.70
2018-07-16T12:01:09.938Z,3.13
2018-07-16T12:04:11.888Z,2.80
2018-07-16T12:07:14.994Z,2.40
2018-07-16T12:10:17.149Z,2.90
2018-07-16T12:13:20.520Z,3.00
2018-07-16T12:16:22.727Z,3.30
2018-07-16T12:19:24.877Z,2.97
2018-07-16T12:22:26.944Z,2.93
2018-07-16T12:25:29.011Z,2.90
2018-07-16T12:28:31.053Z,2.77
2018-07-16T12:31:33.120Z,3.20
2018-07-16T12:34:35.116Z,3.60
2018-07-16T12:37:37.229Z,3.00
2018-07-16T12:40:39.501Z,3.13
2018-07-16T12:43:41.467Z,2.83
2018-07-16T12:46:43.641Z,3.20
2018-07-16T12:49:45.795Z,3.30
2018-07-16T12:52:47.793Z,2.97
2018-07-16T12:55:51.104Z,3.43
2018-07-16T12:58:53.140Z,3.10
2018-07-16T13:01:55.139Z,2.97
2018-07-16T13:04:57.258Z,3.00
2018-07-16T13:07:59.496Z,3.50
2018-07-16T13:11:01.590Z,3.00
2018-07-16T13:14:03.658Z,3.07
2018-07-16T13:17:05.799Z,3.43
2018-07-16T13:20:07.909Z,2.90
2018-07-16T13:23:10.162Z,2.83
2018-07-16T13:26:12.556Z,3.27
2018-07-16T13:29:14.636Z,3.23
2018-07-16T13:32:16.657Z,3.50
2018-07-16T13:35:18.764Z,3.33
2018-07-16T13:38:21.760Z,3.40
2018-07-16T13:41:23.855Z,3.30
2018-07-16T13:44:25.990Z,3.10
2018-07-16T13:47:28.016Z,3.70
2018-07-16T13:50:30.253Z,3.40
2018-07-16T13:53:32.411Z,3.07
2018-07-16T13:56:34.480Z,3.30
2018-07-16T13:59:36.639Z,3.47
2018-07-16T14:02:38.606Z,3.37
2018-07-16T14:05:40.685Z,3.23
2018-07-16T14:08:42.773Z,3.70
2018-07-16T14:11:44.997Z,3.30
2018-07-16T14:14:47.115Z,3.30
2018-07-16T14:17:49.305Z,3.30
2018-07-16T14:20:52.463Z,3.50
2018-07-16T14:23:54.667Z,3.20
2018-07-16T14:26:56.855Z,3.50
2018-07-16T14:29:58.936Z,3.60
2018-07-16T14:33:00.951Z,3.43
2018-07-16T14:36:02.991Z,3.53
2018-07-16T14:39:06.373Z,3.13
2018-07-16T14:42:08.484Z,3.40
2018-07-16T14:45:10.665Z,3.77
2018-07-16T14:48:12.721Z,3.20
2018-07-16T14:51:15.027Z,3.33
2018-07-16T14:54:17.154Z,3.40
2018-07-16T14:57:19.350Z,3.30
2018-07-16T15:00:22.661Z,3.40
2018-07-16T15:03:24.808Z,3.57
2018-07-16T15:06:26.882Z,3.87
2018-07-16T15:09:29.059Z,3.83
2018-07-16T15:12:31.048Z,3.50
2018-07-16T15:15:33.071Z,3.27
2018-07-16T15:18:35.253Z,3.60
2018-07-16T15:21:37.439Z,3.50
2018-07-16T15:24:39.373Z,3.73
2018-07-16T15:27:41.532Z,3.70
2018-07-16T15:30:43.698Z,3.50
2018-07-16T15:33:45.957Z,3.63
2018-07-16T15:36:48.223Z,3.30
2018-07-16T15:39:50.453Z,3.60
2018-07-16T15:42:53.738Z,3.37
2018-07-16T15:45:55.863Z,3.20
2018-07-16T15:48:58.136Z,3.30
2018-07-16T15:52:00.279Z,3.40
2018-07-16T15:55:02.436Z,3.07
2018-07-16T15:58:04.646Z,3.43
2018-07-16T16:01:06.790Z,3.83
2018-07-16T16:04:08.810Z,3.50
2018-07-16T16:07:10.911Z,3.50
2018-07-16T16:10:12.973Z,3.40
2018-07-16T16:13:14.945Z,3.20
2018-07-16T16:16:17.066Z,3.80
2018-07-16T16:19:19.055Z,3.30
2018-07-16T16:22:22.309Z,3.70
2018-07-16T16:25:24.379Z,3.60
2018-07-16T16:28:26.605Z,3.57
2018-07-16T16:31:28.792Z,4.17
2018-07-16T16:34:31.103Z,3.70
2018-07-16T16:37:33.253Z,3.80
2018-07-16T16:40:35.410Z,3.50
2018-07-16T16:43:37.508Z,3.50
2018-07-16T16:46:39.524Z,3.90
2018-07-16T16:49:41.504Z,3.60
2018-07-16T16:52:43.618Z,3.63
2018-07-16T16:55:45.660Z,4.13
2018-07-16T16:58:47.823Z,4.33
2018-07-16T17:01:49.898Z,4.93
2018-07-16T17:04:52.970Z,5.23
2018-07-16T17:07:55.047Z,4.50
2018-07-16T17:10:57.136Z,4.17
2018-07-16T17:13:59.295Z,3.70
2018-07-16T17:17:01.508Z,4.23
2018-07-16T17:20:03.618Z,3.77
2018-07-16T17:23:05.829Z,3.90
2018-07-16T17:26:08.051Z,3.50
2018-07-16T17:29:10.019Z,3.97
2018-07-16T17:32:12.100Z,3.80
2018-07-16T17:35:14.104Z,3.70
2018-07-16T17:38:16.167Z,3.50
2018-07-16T17:41:18.213Z,3.57
2018-07-16T17:44:20.217Z,3.80
2018-07-16T17:47:22.365Z,3.50
2018-07-16T17:50:24.426Z,3.60
2018-07-16T17:53:27.540Z,5.87
2018-07-16T17:56:29.572Z,4.80
2018-07-16T17:59:31.623Z,5.00
2018-07-16T18:02:33.632Z,4.90
2018-07-16T18:05:35.815Z,4.90
2018-07-16T18:08:37.751Z,5.20
2018-07-16T18:11:39.909Z,5.50
2018-07-16T18:14:42.713Z,5.23
2018-07-16T18:17:44.768Z,4.70
2018-07-16T18:20:46.855Z,4.97
2018-07-16T18:23:49.167Z,7.70
2018-07-16T18:26:51.164Z,4.50
2018-07-16T18:29:53.294Z,4.17
2018-07-16T18:32:55.355Z,4.93
2018-07-16T18:35:57.496Z,5.03
2018-07-16T18:38:59.667Z,5.20
2018-07-16T18:42:01.782Z,4.87
2018-07-16T18:45:04.044Z,4.77
2018-07-16T18:48:06.115Z,4.33
2018-07-16T18:51:08.344Z,4.63
2018-07-16T18:54:10.455Z,4.90
2018-07-16T18:57:13.510Z,4.53
2018-07-16T19:00:16.703Z,4.03
2018-07-16T19:03:19.129Z,3.90
2018-07-16T19:06:21.147Z,4.00
2018-07-16T19:09:23.268Z,4.03
2018-07-16T19:12:25.271Z,4.90
2018-07-16T19:15:28.020Z,4.90
2018-07-16T19:18:29.978Z,4.80
2018-07-16T19:21:32.160Z,5.30
2018-07-16T19:24:34.330Z,5.47
2018-07-16T19:27:36.467Z,5.17
2018-07-16T19:30:38.616Z,5.83
2018-07-16T19:33:40.685Z,5.20
2018-07-16T19:36:43.079Z,4.90
2018-07-16T19:39:45.203Z,4.70
2018-07-16T19:42:47.251Z,4.80
2018-07-16T19:45:49.343Z,4.43
2018-07-16T19:48:51.440Z,4.67
2018-07-16T19:51:53.516Z,5.00
2018-07-16T19:54:55.741Z,4.33
2018-07-16T19:57:58.017Z,4.33
2018-07-16T20:00:59.964Z,4.60
2018-07-16T20:04:02.138Z,4.33
2018-07-16T20:07:04.376Z,4.43
2018-07-16T20:10:06.592Z,4.00
2018-07-16T20:13:08.609Z,3.70
2018-07-16T20:16:11.948Z,3.40
2018-07-16T20:19:14.004Z,3.10
2018-07-16T20:22:16.327Z,3.87
2018-07-16T20:25:18.431Z,3.70
2018-07-16T20:28:20.532Z,3.37
2018-07-16T20:31:22.544Z,3.23
2018-07-16T20:34:24.688Z,3.30
2018-07-16T20:37:26.812Z,3.57
2018-07-16T20:40:28.927Z,3.80
2018-07-16T20:43:31.076Z,3.60
2018-07-16T20:46:33.262Z,3.50
2018-07-16T20:49:35.407Z,3.53
2018-07-16T20:52:37.420Z,3.80
2018-07-16T20:55:39.523Z,3.60
2018-07-16T20:58:42.890Z,3.90
2018-07-16T21:01:45.028Z,3.50
2018-07-16T21:04:47.088Z,3.77
2018-07-16T21:07:49.349Z,3.60
2018-07-16T21:10:51.418Z,3.70
2018-07-16T21:13:53.633Z,3.90
2018-07-16T21:16:56.012Z,3.97
2018-07-16T21:19:58.123Z,3.93
2018-07-16T21:23:00.212Z,4.10
2018-07-16T21:26:02.507Z,4.33
2018-07-16T21:29:06.821Z,3.70
2018-07-16T21:32:08.806Z,4.30
2018-07-16T21:35:10.976Z,4.10
2018-07-16T21:38:14.225Z,3.83
2018-07-16T21:41:16.577Z,4.20
2018-07-16T21:44:18.652Z,4.47
2018-07-16T21:47:20.725Z,4.37
2018-07-16T21:50:22.919Z,4.40
2018-07-16T21:53:24.843Z,4.40
2018-07-16T21:56:27.052Z,4.30
2018-07-16T21:59:29.148Z,4.77
2018-07-16T22:02:31.177Z,4.60
2018-07-16T22:05:33.338Z,4.40
2018-07-16T22:08:35.554Z,4.30
2018-07-16T22:11:37.658Z,4.30
2018-07-16T22:14:39.613Z,4.30
2018-07-16T22:17:41.716Z,4.67
2018-07-16T22:20:44.000Z,4.90
2018-07-16T22:23:46.089Z,4.20
2018-07-16T22:26:48.108Z,5.30
2018-07-16T22:29:50.194Z,5.20
2018-07-16T22:32:52.160Z,4.93
2018-07-16T22:35:54.245Z,5.13
2018-07-16T22:38:57.409Z,5.50
2018-07-16T22:41:59.532Z,4.93
2018-07-16T22:45:01.728Z,5.30
2018-07-16T22:48:03.969Z,4.70
2018-07-16T22:51:06.013Z,4.83
2018-07-16T22:54:08.232Z,4.60
2018-07-16T22:57:10.400Z,4.67
2018-07-16T23:00:12.516Z,5.30
2018-07-16T23:03:14.724Z,4.70
2018-07-16T23:06:16.908Z,4.73
2018-07-16T23:09:18.959Z,5.37
2018-07-16T23:12:20.964Z,5.50
2018-07-16T23:15:23.925Z,5.63
2018-07-16T23:18:26.059Z,5.70
2018-07-16T23:21:28.123Z,5.20
2018-07-16T23:24:30.202Z,5.23
2018-07-16T23:27:32.274Z,5.43
2018-07-16T23:30:34.327Z,4.97
2018-07-16T23:33:36.279Z,4.70
2018-07-16T23:36:38.531Z,4.97
2018-07-16T23:39:40.799Z,4.83
2018-07-16T23:42:44.040Z,4.63
2018-07-16T23:45:46.143Z,5.23
2018-07-16T23:48:49.211Z,4.77
2018-07-16T23:51:51.543Z,4.97
2018-07-16T23:54:53.652Z,4.90
2018-07-16T23:57:55.725Z,4.87
